Terminal Aerodrome Forecast
Issued by NWS Green Bay, WI

Home | Current Version | Previous Version | Text Only | Print | Product List | Glossary Off
Versions: 1 2 3 4 5 6 7 8 9 10 11 12 13 14 15 16 17 18 19 20 21 22 23 24 25 26 27 28 29 30 31 32 33

000
FTUS43 KGRB 190500
TAFGRB
TAF
KGRB 190528Z 1906/2006 14004KT 5SM BR SCT008 SCT200
      TEMPO 1908/1910 1SM BR BKN008
     FM191500 20012G20KT P6SM SCT100 BKN250
     FM200000 19009KT P6SM BKN100 BKN250=

USA.gov is the U.S. government's official web portal to all federal, state and local government web resources and services.